createdAt,value
2022-08-28T00:00:16.205Z,13.73
2022-08-28T00:01:19.329Z,12.90
2022-08-28T00:02:23.140Z,12.65
2022-08-28T00:03:25.711Z,10.93
2022-08-28T00:04:28.108Z,13.35
2022-08-28T00:05:32.262Z,14.57
2022-08-28T00:06:34.575Z,12.63
2022-08-28T00:07:37.509Z,12.35
2022-08-28T00:08:39.817Z,12.70
2022-08-28T00:09:42.291Z,14.20
2022-08-28T00:10:45.332Z,10.95
2022-08-28T00:11:48.312Z,17.27
2022-08-28T00:12:52.845Z,12.82
2022-08-28T00:13:56.778Z,15.57
2022-08-28T00:14:59.441Z,14.88
2022-08-28T00:16:01.971Z,17.67
2022-08-28T00:17:05.042Z,12.88
2022-08-28T00:18:08.628Z,13.63
2022-08-28T00:19:11.076Z,12.13
2022-08-28T00:20:15.142Z,20.55
2022-08-28T00:21:17.448Z,14.02
2022-08-28T00:22:20.178Z,14.23
2022-08-28T00:23:24.779Z,11.73
2022-08-28T00:24:30.773Z,12.15
2022-08-28T00:25:34.001Z,12.55
2022-08-28T00:26:55.432Z,15.90
2022-08-28T00:28:00.554Z,12.75
2022-08-28T00:29:07.973Z,11.57
2022-08-28T00:30:10.429Z,11.32
2022-08-28T00:31:13.140Z,13.20
2022-08-28T00:32:15.666Z,15.82
2022-08-28T00:33:29.899Z,11.35
2022-08-28T00:34:33.804Z,12.00
2022-08-28T00:35:36.331Z,13.98
2022-08-28T00:36:41.101Z,13.10
2022-08-28T00:37:44.513Z,12.60
2022-08-28T00:38:50.484Z,10.52
2022-08-28T00:39:53.031Z,12.23
2022-08-28T00:40:59.347Z,10.90
2022-08-28T00:42:01.694Z,12.43
2022-08-28T00:43:06.695Z,11.68
2022-08-28T00:44:21.542Z,10.13
2022-08-28T00:45:25.566Z,14.40
2022-08-28T00:46:28.051Z,15.77
2022-08-28T00:47:30.317Z,13.27
2022-08-28T00:48:32.884Z,11.23
2022-08-28T00:49:40.473Z,17.63
2022-08-28T00:51:01.319Z,14.30
2022-08-28T00:52:11.788Z,13.85
2022-08-28T00:53:14.666Z,12.20
2022-08-28T00:54:19.292Z,13.75
2022-08-28T00:55:25.548Z,12.45
2022-08-28T00:56:30.215Z,11.88
2022-08-28T00:57:40.820Z,12.55
2022-08-28T00:58:46.581Z,18.70
2022-08-28T00:59:48.861Z,11.65
2022-08-28T01:00:52.935Z,12.35
2022-08-28T01:01:57.523Z,11.50
2022-08-28T01:03:00.231Z,11.90
2022-08-28T01:04:06.102Z,12.05
2022-08-28T01:05:09.752Z,13.90
2022-08-28T01:06:16.304Z,11.95
2022-08-28T01:07:19.273Z,12.38
2022-08-28T01:08:21.596Z,13.95
2022-08-28T01:09:28.415Z,12.73
2022-08-28T01:10:33.076Z,13.55
2022-08-28T01:11:35.596Z,19.42
2022-08-28T01:12:38.596Z,16.80
2022-08-28T01:13:48.556Z,14.57
2022-08-28T01:14:53.498Z,11.23
2022-08-28T01:15:58.104Z,18.20
2022-08-28T01:17:00.570Z,13.80
2022-08-28T01:18:08.423Z,15.48
2022-08-28T01:19:19.028Z,12.98
2022-08-28T01:20:25.726Z,13.45
2022-08-28T01:21:33.321Z,11.98
2022-08-28T01:22:38.148Z,11.50
2022-08-28T01:24:06.838Z,12.60
2022-08-28T01:25:13.428Z,12.95
2022-08-28T01:26:15.780Z,12.25
2022-08-28T01:27:18.191Z,13.93
2022-08-28T01:28:20.757Z,17.98
2022-08-28T01:29:23.089Z,14.73
2022-08-28T01:30:25.467Z,19.17
2022-08-28T01:31:31.723Z,17.52
2022-08-28T01:32:41.856Z,14.50
2022-08-28T01:33:46.178Z,14.70
2022-08-28T01:34:48.433Z,14.82
2022-08-28T01:35:50.719Z,11.65
2022-08-28T01:36:52.970Z,11.30
2022-08-28T01:37:56.007Z,11.77
2022-08-28T01:39:07.565Z,12.52
2022-08-28T01:40:14.159Z,12.00
2022-08-28T01:41:16.589Z,11.20
2022-08-28T01:42:18.979Z,17.00
2022-08-28T01:43:23.697Z,13.00
2022-08-28T01:44:27.734Z,13.77
2022-08-28T01:45:31.391Z,15.70
2022-08-28T01:46:33.963Z,17.42
2022-08-28T01:47:36.853Z,14.80
2022-08-28T01:48:42.580Z,18.00
2022-08-28T01:49:45.207Z,16.27
2022-08-28T01:50:48.123Z,16.08
2022-08-28T01:51:50.529Z,19.38
2022-08-28T01:52:54.620Z,16.73
2022-08-28T01:53:56.914Z,19.02
2022-08-28T01:54:59.515Z,14.48
2022-08-28T01:56:05.142Z,13.57
2022-08-28T01:57:07.536Z,12.88
2022-08-28T01:58:11.027Z,16.63
2022-08-28T01:59:14.183Z,16.92
2022-08-28T02:00:18.102Z,12.77
2022-08-28T02:01:21.598Z,14.40
2022-08-28T02:02:24.152Z,14.43
2022-08-28T02:03:26.843Z,14.65
2022-08-28T02:04:31.733Z,13.60
2022-08-28T02:05:35.658Z,14.75
2022-08-28T02:06:38.283Z,13.23
2022-08-28T02:07:40.524Z,12.93
2022-08-28T02:08:42.781Z,12.50
2022-08-28T02:09:45.377Z,13.98
2022-08-28T02:10:49.012Z,15.50
2022-08-28T02:11:51.513Z,12.75
2022-08-28T02:12:55.537Z,14.50
2022-08-28T02:14:01.575Z,16.50
2022-08-28T02:15:08.177Z,15.43
2022-08-28T02:16:11.055Z,18.65
2022-08-28T02:17:13.563Z,17.38
2022-08-28T02:18:15.776Z,14.63
2022-08-28T02:19:18.123Z,16.88
2022-08-28T02:20:21.135Z,20.17
2022-08-28T02:21:24.374Z,14.73
2022-08-28T02:22:27.141Z,18.92
2022-08-28T02:23:29.424Z,14.63
2022-08-28T02:24:31.679Z,18.20
2022-08-28T02:25:34.246Z,14.60
2022-08-28T02:26:36.636Z,19.58
2022-08-28T02:27:39.133Z,18.90
2022-08-28T02:28:42.288Z,20.98
2022-08-28T02:29:44.604Z,18.48
2022-08-28T02:30:46.932Z,17.65
2022-08-28T02:31:49.220Z,23.80
2022-08-28T02:32:51.665Z,19.60
2022-08-28T02:33:54.203Z,18.75
2022-08-28T02:34:57.723Z,18.67
2022-08-28T02:35:59.988Z,14.15
2022-08-28T02:37:02.751Z,15.50
2022-08-28T02:38:05.017Z,20.17
2022-08-28T02:39:07.618Z,16.25
2022-08-28T02:40:11.573Z,14.18
2022-08-28T02:41:14.106Z,19.20
2022-08-28T02:42:16.661Z,17.35
2022-08-28T02:43:21.611Z,18.92
2022-08-28T02:44:23.830Z,19.75
2022-08-28T02:45:26.078Z,18.65
2022-08-28T02:46:28.493Z,23.85
2022-08-28T02:47:31.797Z,16.50
2022-08-28T02:48:38.010Z,15.18
2022-08-28T02:49:40.423Z,16.33
2022-08-28T02:50:42.703Z,15.68
2022-08-28T02:51:45.168Z,20.05
2022-08-28T02:52:47.535Z,24.77
2022-08-28T02:53:50.516Z,22.88
2022-08-28T02:54:52.803Z,20.45
2022-08-28T02:55:55.392Z,18.88
2022-08-28T02:56:58.554Z,19.05
2022-08-28T02:58:00.915Z,24.40
2022-08-28T02:59:03.334Z,19.45
2022-08-28T03:00:09.941Z,18.60
2022-08-28T03:01:13.448Z,19.48
2022-08-28T03:02:15.871Z,20.25
2022-08-28T03:03:18.177Z,21.65
2022-08-28T03:04:20.597Z,23.00
2022-08-28T03:05:25.273Z,20.60
2022-08-28T03:06:27.500Z,24.92
2022-08-28T03:07:29.806Z,23.10
2022-08-28T03:08:32.738Z,22.25
2022-08-28T03:09:35.215Z,23.42
2022-08-28T03:10:38.559Z,20.90
2022-08-28T03:11:41.190Z,24.98
2022-08-28T03:12:43.455Z,19.23
2022-08-28T03:13:45.782Z,17.08
2022-08-28T03:14:47.987Z,18.25
2022-08-28T03:15:52.014Z,26.30
2022-08-28T03:16:58.002Z,16.85
2022-08-28T03:18:00.325Z,22.92
2022-08-28T03:19:03.364Z,20.50
2022-08-28T03:20:08.511Z,19.50
2022-08-28T03:21:11.417Z,21.35
2022-08-28T03:22:13.697Z,21.85
2022-08-28T03:23:28.203Z,23.33
2022-08-28T03:24:30.534Z,22.48
2022-08-28T03:25:33.167Z,24.83
2022-08-28T03:26:35.512Z,22.05
2022-08-28T03:27:39.100Z,18.25
2022-08-28T03:28:50.937Z,23.90
2022-08-28T03:29:53.182Z,21.40
2022-08-28T03:30:55.529Z,22.75
2022-08-28T03:31:57.785Z,17.35
2022-08-28T03:33:01.063Z,20.95
2022-08-28T03:34:04.185Z,23.23
2022-08-28T03:35:07.054Z,26.17
2022-08-28T03:36:11.047Z,19.38
2022-08-28T03:37:13.691Z,20.70
2022-08-28T03:38:17.080Z,18.58
2022-08-28T03:39:19.570Z,17.38
2022-08-28T03:40:22.058Z,21.67
2022-08-28T03:41:26.875Z,23.10
2022-08-28T03:42:29.084Z,20.05
2022-08-28T03:43:31.462Z,21.52
2022-08-28T03:44:33.723Z,20.20
2022-08-28T03:45:36.043Z,23.38
2022-08-28T03:46:38.833Z,24.30
2022-08-28T03:47:42.049Z,18.40
2022-08-28T03:48:46.235Z,26.30
2022-08-28T03:49:55.568Z,24.23
2022-08-28T03:50:59.768Z,23.98
2022-08-28T03:52:02.259Z,24.63
2022-08-28T03:53:04.521Z,25.40
2022-08-28T03:54:06.923Z,20.80
2022-08-28T03:55:12.378Z,24.80
2022-08-28T03:56:21.652Z,25.10
2022-08-28T03:57:24.200Z,20.70
2022-08-28T03:58:26.749Z,22.55
2022-08-28T03:59:31.659Z,19.02
2022-08-28T04:00:36.384Z,18.20
2022-08-28T04:01:38.780Z,20.00
2022-08-28T04:02:41.722Z,25.75
2022-08-28T04:03:44.740Z,20.02
2022-08-28T04:04:48.964Z,23.25
2022-08-28T04:05:51.776Z,22.63
2022-08-28T04:06:54.270Z,21.25
2022-08-28T04:07:56.524Z,20.38
2022-08-28T04:09:00.239Z,23.00
2022-08-28T04:10:04.214Z,20.67
2022-08-28T04:11:06.675Z,20.33
2022-08-28T04:12:10.237Z,19.33
2022-08-28T04:13:14.505Z,16.92
2022-08-28T04:14:16.730Z,17.75
2022-08-28T04:15:20.324Z,17.20
2022-08-28T04:16:22.643Z,16.25
2022-08-28T04:17:25.417Z,17.88
2022-08-28T04:18:29.660Z,19.90
2022-08-28T04:19:32.128Z,17.48
2022-08-28T04:20:34.378Z,20.55
2022-08-28T04:21:36.798Z,20.65
2022-08-28T04:22:39.480Z,19.17
2022-08-28T04:23:43.242Z,19.65
2022-08-28T04:24:45.452Z,20.52
2022-08-28T04:25:47.723Z,15.27
2022-08-28T04:26:50.568Z,19.13
2022-08-28T04:27:52.816Z,15.48
2022-08-28T04:28:56.051Z,14.77
2022-08-28T04:29:59.120Z,15.07
2022-08-28T04:31:01.708Z,18.08
2022-08-28T04:32:04.159Z,15.18
2022-08-28T04:33:06.416Z,17.75
2022-08-28T04:34:10.870Z,16.00
2022-08-28T04:35:14.311Z,12.73
2022-08-28T04:36:17.628Z,19.33
2022-08-28T04:37:20.155Z,18.20
2022-08-28T04:38:25.043Z,18.10
2022-08-28T04:39:27.325Z,18.13
2022-08-28T04:40:30.113Z,16.70
2022-08-28T04:41:32.536Z,18.25
2022-08-28T04:42:34.845Z,17.90
2022-08-28T04:43:37.485Z,17.25
2022-08-28T04:44:39.782Z,18.88
2022-08-28T04:45:45.821Z,17.88
2022-08-28T04:46:48.291Z,21.48
2022-08-28T04:47:52.038Z,18.05
2022-08-28T04:48:55.558Z,20.45
2022-08-28T04:49:57.898Z,23.20
2022-08-28T04:51:00.169Z,17.95
2022-08-28T04:52:03.007Z,19.52
2022-08-28T04:53:05.276Z,21.13
2022-08-28T04:54:08.153Z,16.83
2022-08-28T04:55:10.840Z,19.77
2022-08-28T04:56:14.637Z,17.88
2022-08-28T04:57:16.896Z,15.88
2022-08-28T04:58:20.223Z,20.25
2022-08-28T04:59:27.387Z,18.00
2022-08-28T05:00:29.637Z,20.75
2022-08-28T05:01:32.316Z,16.17
2022-08-28T05:02:34.749Z,23.42
2022-08-28T05:03:37.332Z,23.15
2022-08-28T05:04:39.924Z,19.60
2022-08-28T05:05:52.686Z,16.10
2022-08-28T05:06:54.971Z,16.08
2022-08-28T05:07:57.256Z,14.48
2022-08-28T05:09:02.084Z,19.77
2022-08-28T05:10:04.906Z,15.38
2022-08-28T05:11:13.739Z,18.63
2022-08-28T05:12:29.613Z,18.95
2022-08-28T05:13:31.949Z,19.08
2022-08-28T05:14:35.466Z,17.13
2022-08-28T05:15:42.467Z,15.25
2022-08-28T05:16:52.702Z,14.57
2022-08-28T05:17:55.056Z,15.73
2022-08-28T05:19:00.668Z,15.30
2022-08-28T05:20:03.921Z,16.50
2022-08-28T05:21:14.414Z,17.33
2022-08-28T05:22:16.907Z,18.10
2022-08-28T05:23:19.169Z,16.10
2022-08-28T05:24:25.584Z,23.27
2022-08-28T05:25:27.860Z,14.98
2022-08-28T05:26:30.338Z,17.60
2022-08-28T05:27:32.659Z,15.55
2022-08-28T05:28:34.966Z,15.57
2022-08-28T05:29:37.295Z,14.70
2022-08-28T05:30:41.818Z,14.85
2022-08-28T05:31:44.685Z,14.18
2022-08-28T05:32:48.765Z,15.80
2022-08-28T05:33:52.754Z,14.73
2022-08-28T05:34:55.138Z,14.88
2022-08-28T05:35:57.421Z,13.73
2022-08-28T05:36:59.712Z,13.15
2022-08-28T05:38:01.908Z,14.98
2022-08-28T05:39:07.666Z,14.32
2022-08-28T05:40:10.590Z,14.85
2022-08-28T05:41:20.607Z,16.45
2022-08-28T05:42:22.853Z,16.35
2022-08-28T05:43:31.616Z,13.43
2022-08-28T05:44:34.342Z,14.63
2022-08-28T05:45:36.854Z,15.27
2022-08-28T05:46:41.458Z,11.43
2022-08-28T05:47:43.892Z,14.13
2022-08-28T05:48:48.535Z,13.45
2022-08-28T05:49:50.853Z,14.95
2022-08-28T05:50:54.618Z,16.30
2022-08-28T05:51:56.973Z,14.13
2022-08-28T05:52:59.319Z,14.23
2022-08-28T05:54:02.344Z,16.17
2022-08-28T05:55:05.283Z,17.27
2022-08-28T05:56:12.537Z,15.40
2022-08-28T05:57:14.845Z,18.33
2022-08-28T05:58:29.356Z,13.55
2022-08-28T05:59:31.649Z,15.05
2022-08-28T06:00:33.992Z,15.57
2022-08-28T06:01:40.907Z,17.83
2022-08-28T06:02:44.848Z,18.75
2022-08-28T06:03:55.157Z,20.33
2022-08-28T06:04:57.752Z,17.90
2022-08-28T06:06:00.605Z,16.70
2022-08-28T06:07:04.900Z,17.15
2022-08-28T06:08:08.151Z,17.70
2022-08-28T06:09:16.276Z,15.93
2022-08-28T06:10:18.624Z,15.25
2022-08-28T06:11:22.108Z,16.67
2022-08-28T06:12:28.893Z,18.58
2022-08-28T06:13:32.604Z,17.13
2022-08-28T06:14:37.191Z,17.17
2022-08-28T06:15:45.691Z,14.65
2022-08-28T06:16:52.521Z,17.55
2022-08-28T06:17:55.652Z,18.10
2022-08-28T06:18:58.334Z,18.95
2022-08-28T06:20:01.300Z,15.70
2022-08-28T06:21:04.481Z,19.55
2022-08-28T06:22:07.809Z,15.90
2022-08-28T06:23:13.674Z,17.13
2022-08-28T06:24:16.764Z,18.45
2022-08-28T06:25:19.488Z,14.02
2022-08-28T06:26:22.951Z,18.48
2022-08-28T06:27:28.877Z,19.15
2022-08-28T06:28:31.527Z,18.90
2022-08-28T06:29:34.027Z,13.63
2022-08-28T06:30:37.211Z,16.50
2022-08-28T06:31:42.807Z,16.55
2022-08-28T06:32:48.023Z,19.75
2022-08-28T06:33:50.373Z,19.20
2022-08-28T06:34:52.771Z,17.75
2022-08-28T06:35:56.457Z,15.48
2022-08-28T06:36:58.867Z,17.25
2022-08-28T06:38:02.932Z,14.98
2022-08-28T06:39:07.090Z,12.75
2022-08-28T06:40:10.098Z,14.15
2022-08-28T06:41:13.658Z,13.38
2022-08-28T06:42:15.993Z,14.73
2022-08-28T06:43:20.092Z,13.57
2022-08-28T06:44:22.987Z,11.75
2022-08-28T06:45:25.353Z,16.13
2022-08-28T06:46:30.374Z,13.63
2022-08-28T06:47:32.809Z,14.40
2022-08-28T06:48:35.158Z,12.98
2022-08-28T06:49:37.661Z,12.88
2022-08-28T06:50:41.931Z,13.82
2022-08-28T06:51:44.250Z,11.15
2022-08-28T06:52:46.783Z,11.88
2022-08-28T06:53:49.335Z,12.43
2022-08-28T06:54:55.727Z,15.20
2022-08-28T06:56:07.249Z,12.48
2022-08-28T06:57:09.914Z,13.13
2022-08-28T06:58:13.190Z,11.57
2022-08-28T06:59:15.644Z,10.60
2022-08-28T07:00:18.256Z,14.32
2022-08-28T07:01:33.263Z,14.40
2022-08-28T07:02:35.786Z,13.20
2022-08-28T07:03:44.125Z,18.85
2022-08-28T07:04:51.074Z,10.50
2022-08-28T07:05:58.209Z,11.05
2022-08-28T07:07:00.564Z,14.70
2022-08-28T07:08:03.157Z,12.88
2022-08-28T07:09:08.052Z,14.13
2022-08-28T07:10:10.574Z,13.90
2022-08-28T07:11:15.000Z,16.10
2022-08-28T07:12:18.290Z,14.80
2022-08-28T07:13:22.055Z,16.50
2022-08-28T07:14:26.257Z,14.32
2022-08-28T07:15:29.391Z,17.48
2022-08-28T07:16:38.215Z,15.52
2022-08-28T07:17:40.793Z,13.68
2022-08-28T07:18:44.894Z,14.43
2022-08-28T07:19:47.457Z,10.93
2022-08-28T07:21:00.616Z,17.27
2022-08-28T07:22:04.751Z,11.75
2022-08-28T07:23:07.641Z,10.52
2022-08-28T07:24:12.896Z,12.20
2022-08-28T07:25:15.327Z,14.60
2022-08-28T07:26:22.520Z,9.93
2022-08-28T07:27:25.356Z,10.45
2022-08-28T07:28:27.693Z,9.68
2022-08-28T07:29:30.028Z,12.95
2022-08-28T07:30:32.519Z,9.90
2022-08-28T07:31:35.018Z,11.00
2022-08-28T07:32:37.414Z,9.30
2022-08-28T07:33:41.187Z,10.68
2022-08-28T07:34:43.752Z,14.68
2022-08-28T07:35:47.111Z,14.27
2022-08-28T07:36:52.457Z,12.05
2022-08-28T07:37:54.810Z,13.43
2022-08-28T07:39:00.209Z,13.98
2022-08-28T07:40:02.855Z,10.75
2022-08-28T07:41:17.014Z,11.48
2022-08-28T07:42:38.376Z,11.82
2022-08-28T07:43:59.770Z,13.15
2022-08-28T07:45:02.773Z,14.82
2022-08-28T07:46:08.911Z,13.55
2022-08-28T07:47:11.732Z,12.90
2022-08-28T07:48:15.169Z,13.65
2022-08-28T07:49:18.395Z,10.18
2022-08-28T07:50:21.048Z,12.57
2022-08-28T07:51:23.439Z,12.45
2022-08-28T07:52:29.455Z,11.82
2022-08-28T07:53:36.245Z,9.93
2022-08-28T07:54:40.446Z,12.75
2022-08-28T07:55:42.981Z,10.82
2022-08-28T07:56:46.278Z,10.68
2022-08-28T07:57:49.953Z,9.50
2022-08-28T07:58:54.142Z,12.65
2022-08-28T07:59:56.706Z,13.48
2022-08-28T08:00:59.805Z,8.23
2022-08-28T08:02:03.444Z,9.23
2022-08-28T08:03:05.886Z,11.55
2022-08-28T08:04:10.970Z,13.70
2022-08-28T08:05:14.499Z,10.88
2022-08-28T08:06:17.375Z,11.75
2022-08-28T08:07:20.478Z,10.38
2022-08-28T08:08:23.095Z,11.10
2022-08-28T08:09:26.358Z,12.68
2022-08-28T08:10:33.866Z,10.77
2022-08-28T08:11:36.909Z,10.52
2022-08-28T08:12:39.228Z,11.45
2022-08-28T08:13:41.550Z,12.73
2022-08-28T08:14:44.311Z,10.40
2022-08-28T08:15:46.734Z,9.70
2022-08-28T08:16:49.570Z,11.27
2022-08-28T08:17:52.050Z,13.90
2022-08-28T08:18:54.485Z,10.00
2022-08-28T08:19:56.864Z,10.75
2022-08-28T08:21:00.557Z,11.50
2022-08-28T08:22:02.915Z,11.60
2022-08-28T08:23:05.218Z,10.20
2022-08-28T08:24:07.829Z,11.18
2022-08-28T08:25:11.426Z,13.02
2022-08-28T08:26:17.486Z,9.95
2022-08-28T08:27:20.014Z,10.25
2022-08-28T08:28:22.445Z,8.82
2022-08-28T08:29:25.171Z,9.35
2022-08-28T08:30:27.479Z,9.65
2022-08-28T08:31:33.156Z,10.52
2022-08-28T08:32:35.579Z,13.02
2022-08-28T08:33:40.312Z,7.97
2022-08-28T08:34:45.901Z,10.82
2022-08-28T08:35:48.367Z,9.35
2022-08-28T08:36:50.737Z,10.82
2022-08-28T08:37:53.152Z,8.15
2022-08-28T08:38:59.577Z,8.88
2022-08-28T08:40:02.692Z,9.85
2022-08-28T08:41:25.252Z,11.88
2022-08-28T08:42:33.145Z,9.65
2022-08-28T08:44:05.305Z,11.73
2022-08-28T08:45:12.684Z,7.65
2022-08-28T08:46:15.083Z,9.82
2022-08-28T08:47:22.939Z,9.95
2022-08-28T08:48:27.660Z,10.55
2022-08-28T08:49:34.682Z,12.48
2022-08-28T08:50:37.085Z,10.38
2022-08-28T08:51:46.642Z,12.40
2022-08-28T08:53:13.767Z,11.15
2022-08-28T08:54:20.017Z,14.80
2022-08-28T08:55:31.416Z,12.40
2022-08-28T08:56:34.653Z,9.93
2022-08-28T08:57:39.052Z,8.85
2022-08-28T08:58:44.800Z,11.55
2022-08-28T08:59:47.390Z,12.35
2022-08-28T09:00:56.666Z,11.15
2022-08-28T09:02:12.397Z,9.98
2022-08-28T09:03:24.040Z,10.07
2022-08-28T09:04:43.317Z,11.23
2022-08-28T09:05:55.106Z,10.63
2022-08-28T09:07:17.658Z,9.07
2022-08-28T09:08:34.900Z,8.82
2022-08-28T09:09:42.347Z,11.60
2022-08-28T09:10:54.628Z,10.43
2022-08-28T09:12:03.221Z,11.25
2022-08-28T09:13:33.995Z,11.90
2022-08-28T09:14:48.423Z,15.00
2022-08-28T09:15:51.147Z,11.10
2022-08-28T09:16:53.672Z,12.65
2022-08-28T09:18:12.427Z,10.32
2022-08-28T09:19:22.020Z,10.30
2022-08-28T09:20:32.889Z,14.20
2022-08-28T09:21:41.593Z,9.10
2022-08-28T09:22:47.286Z,11.55
2022-08-28T09:23:53.323Z,15.02
2022-08-28T09:24:55.837Z,12.90
2022-08-28T09:26:05.968Z,9.15
2022-08-28T09:27:25.462Z,8.90
2022-08-28T09:28:34.978Z,14.20
2022-08-28T09:29:42.856Z,13.52
2022-08-28T09:30:54.518Z,12.48
2022-08-28T09:31:57.769Z,10.43
2022-08-28T09:33:01.350Z,10.85
2022-08-28T09:34:24.170Z,12.43
2022-08-28T09:36:36.664Z,10.88
2022-08-28T09:37:41.439Z,9.93
2022-08-28T09:38:43.849Z,13.70
2022-08-28T09:39:48.895Z,9.50
2022-08-28T09:41:28.302Z,11.68
2022-08-28T09:42:49.323Z,14.07
2022-08-28T09:43:52.438Z,13.40
2022-08-28T09:44:58.090Z,13.63
2022-08-28T09:46:45.055Z,12.55
2022-08-28T09:48:02.976Z,12.25
2022-08-28T09:49:12.529Z,8.95
2022-08-28T09:50:42.534Z,12.23
2022-08-28T09:51:45.195Z,9.73
2022-08-28T09:52:48.958Z,8.57
2022-08-28T09:53:51.112Z,10.50
2022-08-28T09:54:54.962Z,9.15
2022-08-28T09:56:10.859Z,10.20
2022-08-28T09:57:13.115Z,8.70
2022-08-28T09:58:15.720Z,11.18
2022-08-28T09:59:20.968Z,13.05
2022-08-28T10:00:23.497Z,15.82
2022-08-28T10:01:34.531Z,9.85
2022-08-28T10:02:53.817Z,10.25
2022-08-28T10:04:27.656Z,11.88
2022-08-28T10:05:50.246Z,12.35
2022-08-28T10:07:16.120Z,11.90
2022-08-28T10:08:32.498Z,13.60
2022-08-28T10:09:55.978Z,10.57
2022-08-28T10:11:07.423Z,7.80
2022-08-28T10:12:43.946Z,10.63
2022-08-28T10:14:13.600Z,13.52
2022-08-28T10:15:46.774Z,13.45
2022-08-28T10:16:59.777Z,11.13
2022-08-28T10:18:17.914Z,10.10
2022-08-28T10:19:41.760Z,11.52
2022-08-28T10:21:01.064Z,9.55
2022-08-28T10:22:25.497Z,9.43
2022-08-28T10:23:44.967Z,11.60
2022-08-28T10:25:14.770Z,10.00
2022-08-28T10:26:48.694Z,8.13
2022-08-28T10:28:13.479Z,10.15
2022-08-28T10:29:32.444Z,10.60
2022-08-28T10:30:41.785Z,8.02
2022-08-28T10:32:05.717Z,8.77
2022-08-28T10:33:10.792Z,8.32
2022-08-28T10:34:31.960Z,8.18
2022-08-28T10:36:00.447Z,8.55
2022-08-28T10:37:34.136Z,8.95
2022-08-28T10:38:46.292Z,10.00
2022-08-28T10:39:57.662Z,10.93
2022-08-28T10:41:06.196Z,7.78
2022-08-28T10:42:09.060Z,7.93
2022-08-28T10:43:19.333Z,5.97
2022-08-28T10:44:33.544Z,7.32
2022-08-28T10:45:39.027Z,8.82
2022-08-28T10:46:49.053Z,7.03
2022-08-28T10:48:07.042Z,9.63
2022-08-28T10:49:28.935Z,11.30
2022-08-28T10:51:02.289Z,11.10
2022-08-28T10:53:18.345Z,8.73
2022-08-28T10:54:41.467Z,8.48
2022-08-28T10:55:54.110Z,8.73
2022-08-28T10:57:06.734Z,8.10
2022-08-28T10:58:24.469Z,9.73
2022-08-28T10:59:32.721Z,9.68
2022-08-28T11:00:40.118Z,7.75
2022-08-28T11:01:43.477Z,8.60
2022-08-28T11:02:51.545Z,8.45
2022-08-28T11:03:56.597Z,8.63
2022-08-28T11:04:59.300Z,7.15
2022-08-28T11:06:19.449Z,6.78
2022-08-28T11:07:47.656Z,10.07
2022-08-28T11:08:57.398Z,10.15
2022-08-28T11:10:41.741Z,11.20
2022-08-28T11:11:48.619Z,6.63
2022-08-28T11:12:52.667Z,6.65
2022-08-28T11:13:59.592Z,9.20
2022-08-28T11:15:21.792Z,6.90
2022-08-28T11:16:24.148Z,6.90
2022-08-28T11:17:27.698Z,5.97
2022-08-28T11:18:49.638Z,9.82
2022-08-28T11:20:29.408Z,8.10
2022-08-28T11:21:47.599Z,6.72
2022-08-28T11:22:55.562Z,8.35
2022-08-28T11:24:07.488Z,6.90
2022-08-28T11:25:43.670Z,7.82
2022-08-28T11:26:59.620Z,8.50
2022-08-28T11:28:27.101Z,9.85
2022-08-28T11:30:00.293Z,7.13
2022-08-28T11:31:05.468Z,7.60
2022-08-28T11:32:52.360Z,10.20
2022-08-28T11:33:56.049Z,7.50
2022-08-28T11:35:01.853Z,6.55
2022-08-28T11:36:10.057Z,9.38
2022-08-28T11:37:37.826Z,6.85
2022-08-28T11:38:42.702Z,9.15
2022-08-28T11:39:45.267Z,7.28
2022-08-28T11:40:47.475Z,7.05
2022-08-28T11:42:11.305Z,5.85
2022-08-28T11:43:16.730Z,7.85
2022-08-28T11:44:28.017Z,7.75
2022-08-28T11:45:59.501Z,9.20
2022-08-28T11:47:41.739Z,7.20
2022-08-28T11:48:53.363Z,6.35
2022-08-28T11:50:23.926Z,7.63
2022-08-28T11:51:39.441Z,9.70
2022-08-28T11:53:19.252Z,6.57
2022-08-28T11:54:30.542Z,6.53
2022-08-28T11:55:58.374Z,7.82
2022-08-28T11:57:22.468Z,11.57
2022-08-28T11:58:37.849Z,5.85
2022-08-28T11:59:55.966Z,9.20
2022-08-28T12:01:09.283Z,11.52
2022-08-28T12:02:40.303Z,7.10
2022-08-28T12:03:54.055Z,7.53
2022-08-28T12:04:56.634Z,10.32
2022-08-28T12:06:00.700Z,11.55
2022-08-28T12:07:11.778Z,5.65
2022-08-28T12:08:51.194Z,6.45
2022-08-28T12:09:53.600Z,7.00
2022-08-28T12:10:58.880Z,8.70
2022-08-28T12:12:21.519Z,6.25
2022-08-28T12:13:46.838Z,7.90
2022-08-28T12:14:55.281Z,8.00
2022-08-28T12:16:06.858Z,6.57
2022-08-28T12:17:16.033Z,6.70
2022-08-28T12:18:40.415Z,9.43
2022-08-28T12:19:54.645Z,8.00
2022-08-28T12:21:04.343Z,11.18
2022-08-28T12:22:47.389Z,8.13
2022-08-28T12:24:09.805Z,5.72
2022-08-28T12:26:39.853Z,7.85
2022-08-28T12:27:42.908Z,8.70
2022-08-28T12:29:03.431Z,7.45
2022-08-28T12:30:06.443Z,6.68
2022-08-28T12:31:08.914Z,7.57
2022-08-28T12:32:33.130Z,8.07
2022-08-28T12:33:46.590Z,7.07
2022-08-28T12:34:57.657Z,7.78
2022-08-28T12:36:05.916Z,8.20
2022-08-28T12:37:25.598Z,7.25
2022-08-28T12:38:31.431Z,8.10
2022-08-28T12:39:34.549Z,7.88
2022-08-28T12:40:37.618Z,7.47
2022-08-28T12:41:43.942Z,6.32
2022-08-28T12:42:54.549Z,6.97
2022-08-28T12:44:09.031Z,5.97
2022-08-28T12:45:20.327Z,7.35
2022-08-28T12:46:28.830Z,8.00
2022-08-28T12:47:32.403Z,6.85
2022-08-28T12:48:59.573Z,5.93
2022-08-28T12:50:28.170Z,6.38
2022-08-28T12:51:33.750Z,5.05
2022-08-28T12:52:36.332Z,9.60
2022-08-28T12:53:49.123Z,6.07
2022-08-28T12:54:55.323Z,7.47
2022-08-28T12:55:58.306Z,6.35
2022-08-28T12:57:05.668Z,8.48
2022-08-28T12:58:35.527Z,6.25
2022-08-28T12:59:41.946Z,9.18
2022-08-28T13:00:53.240Z,5.95
2022-08-28T13:02:06.660Z,6.50
2022-08-28T13:03:09.316Z,8.82
2022-08-28T13:04:38.217Z,11.65
2022-08-28T13:05:41.121Z,10.82
2022-08-28T13:06:43.660Z,9.25
2022-08-28T13:07:49.852Z,6.43
2022-08-28T13:09:00.661Z,8.45
2022-08-28T13:10:22.639Z,10.43
2022-08-28T13:11:25.041Z,9.83
2022-08-28T13:12:55.328Z,10.43
2022-08-28T13:13:59.984Z,7.53
2022-08-28T13:15:02.887Z,8.43
2022-08-28T13:16:10.841Z,9.52
2022-08-28T13:17:15.444Z,5.63
2022-08-28T13:18:36.470Z,6.63
2022-08-28T13:19:38.978Z,6.05
2022-08-28T13:20:41.246Z,6.05
2022-08-28T13:21:46.122Z,8.57
2022-08-28T13:22:50.950Z,6.25
2022-08-28T13:23:58.391Z,7.18
2022-08-28T13:25:03.943Z,10.35
2022-08-28T13:26:07.428Z,6.30
2022-08-28T13:27:12.913Z,7.45
2022-08-28T13:28:19.191Z,5.95
2022-08-28T13:29:23.926Z,5.28
2022-08-28T13:30:31.163Z,6.55
2022-08-28T13:31:36.589Z,5.35
2022-08-28T13:32:40.330Z,5.38
2022-08-28T13:33:42.595Z,8.63
2022-08-28T13:35:07.107Z,7.22
2022-08-28T13:36:22.463Z,7.25
2022-08-28T13:37:48.622Z,5.95
2022-08-28T13:38:51.348Z,6.63
2022-08-28T13:39:53.895Z,6.32
2022-08-28T13:41:03.588Z,5.40
2022-08-28T13:42:11.276Z,7.95
2022-08-28T13:43:15.498Z,8.95
2022-08-28T13:44:35.656Z,7.72
2022-08-28T13:45:43.447Z,5.95
2022-08-28T13:46:46.236Z,7.65
2022-08-28T13:47:48.739Z,7.22
2022-08-28T13:48:51.192Z,5.43
2022-08-28T13:49:53.645Z,10.15
2022-08-28T13:51:03.520Z,11.43
2022-08-28T13:52:09.131Z,6.37
2022-08-28T13:53:12.283Z,4.57
2022-08-28T13:54:15.252Z,7.78
2022-08-28T13:55:18.715Z,8.30
2022-08-28T13:56:23.998Z,6.30
2022-08-28T13:57:27.799Z,8.73
2022-08-28T13:58:30.176Z,10.50
2022-08-28T13:59:32.467Z,6.85
2022-08-28T14:00:40.618Z,6.10
2022-08-28T14:02:03.235Z,6.07
2022-08-28T14:03:23.904Z,6.95
2022-08-28T14:04:26.455Z,8.27
2022-08-28T14:05:28.945Z,7.40
2022-08-28T14:06:31.827Z,5.93
2022-08-28T14:07:34.425Z,5.57
2022-08-28T14:08:37.243Z,8.02
2022-08-28T14:09:40.731Z,6.32
2022-08-28T14:10:44.314Z,4.60
2022-08-28T14:11:48.217Z,7.13
2022-08-28T14:12:50.560Z,6.82
2022-08-28T14:13:55.456Z,6.72
2022-08-28T14:14:58.333Z,6.10
2022-08-28T14:16:05.644Z,6.88
2022-08-28T14:17:09.654Z,7.43
2022-08-28T14:18:11.999Z,6.28
2022-08-28T14:19:14.513Z,5.25
2022-08-28T14:20:17.374Z,6.05
2022-08-28T14:21:19.912Z,9.02
2022-08-28T14:22:22.324Z,5.18
2022-08-28T14:23:24.617Z,7.75
2022-08-28T14:24:27.237Z,5.55
2022-08-28T14:25:29.771Z,7.93
2022-08-28T14:26:32.565Z,4.15
2022-08-28T14:27:35.915Z,5.28
2022-08-28T14:28:38.502Z,5.95
2022-08-28T14:29:40.968Z,4.18
2022-08-28T14:30:45.497Z,7.15
2022-08-28T14:31:48.625Z,7.05
2022-08-28T14:32:51.189Z,6.07
2022-08-28T14:33:53.417Z,7.18
2022-08-28T14:34:55.708Z,5.95